sensor_id;sensor_type;location;lat;lon;timestamp;P1;durP1;ratioP1;P2;durP2;ratioP2
651;SDS011;310;48.490;9.200;2023-05-19T00:01:44;106.40;;;2.50;;
651;SDS011;310;48.490;9.200;2023-05-19T00:04:12;106.80;;;3.03;;
651;SDS011;310;48.490;9.200;2023-05-19T00:06:38;107.67;;;2.60;;
651;SDS011;310;48.490;9.200;2023-05-19T00:09:06;108.70;;;3.33;;
651;SDS011;310;48.490;9.200;2023-05-19T00:11:37;108.07;;;3.00;;
651;SDS011;310;48.490;9.200;2023-05-19T00:14:04;107.97;;;2.90;;
651;SDS011;310;48.490;9.200;2023-05-19T00:16:31;108.17;;;3.00;;
651;SDS011;310;48.490;9.200;2023-05-19T00:18:57;108.10;;;2.67;;
651;SDS011;310;48.490;9.200;2023-05-19T00:21:27;108.50;;;3.20;;
651;SDS011;310;48.490;9.200;2023-05-19T00:23:53;107.80;;;2.70;;
651;SDS011;310;48.490;9.200;2023-05-19T00:26:19;108.50;;;3.10;;
651;SDS011;310;48.490;9.200;2023-05-19T00:28:48;107.90;;;3.00;;
651;SDS011;310;48.490;9.200;2023-05-19T00:31:14;107.10;;;2.80;;
651;SDS011;310;48.490;9.200;2023-05-19T00:33:40;107.37;;;3.03;;
651;SDS011;310;48.490;9.200;2023-05-19T00:36:05;107.57;;;3.20;;
651;SDS011;310;48.490;9.200;2023-05-19T00:38:32;107.10;;;2.80;;
651;SDS011;310;48.490;9.200;2023-05-19T00:41:00;107.67;;;2.87;;
651;SDS011;310;48.490;9.200;2023-05-19T00:43:26;107.67;;;2.70;;
651;SDS011;310;48.490;9.200;2023-05-19T00:45:54;108.50;;;3.10;;
651;SDS011;310;48.490;9.200;2023-05-19T00:48:19;108.17;;;2.77;;
651;SDS011;310;48.490;9.200;2023-05-19T00:50:45;102.10;;;2.37;;
651;SDS011;310;48.490;9.200;2023-05-19T00:53:12;108.80;;;2.97;;
651;SDS011;310;48.490;9.200;2023-05-19T00:55:38;109.00;;;2.80;;
651;SDS011;310;48.490;9.200;2023-05-19T00:58:05;108.80;;;2.70;;
651;SDS011;310;48.490;9.200;2023-05-19T01:00:33;109.83;;;3.43;;
651;SDS011;310;48.490;9.200;2023-05-19T01:03:01;109.80;;;3.37;;
651;SDS011;310;48.490;9.200;2023-05-19T01:05:36;110.17;;;3.17;;
651;SDS011;310;48.490;9.200;2023-05-19T01:08:17;110.03;;;2.97;;
651;SDS011;310;48.490;9.200;2023-05-19T01:10:43;110.13;;;3.20;;
651;SDS011;310;48.490;9.200;2023-05-19T01:13:09;109.47;;;2.50;;
651;SDS011;310;48.490;9.200;2023-05-19T01:15:38;109.77;;;3.07;;
651;SDS011;310;48.490;9.200;2023-05-19T01:18:48;109.63;;;2.90;;
651;SDS011;310;48.490;9.200;2023-05-19T01:24:18;110.60;;;3.40;;
651;SDS011;310;48.490;9.200;2023-05-19T01:30:07;109.60;;;2.90;;
651;SDS011;310;48.490;9.200;2023-05-19T01:32:59;112.20;;;4.20;;
651;SDS011;310;48.490;9.200;2023-05-19T01:35:26;109.87;;;2.73;;
651;SDS011;310;48.490;9.200;2023-05-19T01:37:54;109.90;;;2.97;;
651;SDS011;310;48.490;9.200;2023-05-19T01:40:22;109.97;;;3.13;;
651;SDS011;310;48.490;9.200;2023-05-19T01:42:49;110.27;;;3.20;;
651;SDS011;310;48.490;9.200;2023-05-19T01:45:18;110.37;;;2.87;;
651;SDS011;310;48.490;9.200;2023-05-19T01:47:45;110.50;;;3.23;;
651;SDS011;310;48.490;9.200;2023-05-19T01:50:13;109.80;;;3.00;;
651;SDS011;310;48.490;9.200;2023-05-19T01:52:38;110.00;;;3.03;;
651;SDS011;310;48.490;9.200;2023-05-19T01:55:04;109.30;;;2.80;;
651;SDS011;310;48.490;9.200;2023-05-19T02:00:11;109.70;;;2.90;;
651;SDS011;310;48.490;9.200;2023-05-19T02:06:21;109.70;;;2.90;;
651;SDS011;310;48.490;9.200;2023-05-19T02:08:32;110.33;;;3.37;;
651;SDS011;310;48.490;9.200;2023-05-19T02:11:06;105.87;;;2.90;;
651;SDS011;310;48.490;9.200;2023-05-19T02:13:39;105.90;;;2.80;;
651;SDS011;310;48.490;9.200;2023-05-19T02:16:08;106.80;;;3.20;;
651;SDS011;310;48.490;9.200;2023-05-19T02:18:36;105.90;;;2.73;;
651;SDS011;310;48.490;9.200;2023-05-19T02:21:02;105.90;;;2.57;;
651;SDS011;310;48.490;9.200;2023-05-19T02:23:27;106.00;;;2.73;;
651;SDS011;310;48.490;9.200;2023-05-19T02:25:53;106.10;;;2.73;;
651;SDS011;310;48.490;9.200;2023-05-19T02:28:19;106.03;;;3.23;;
651;SDS011;310;48.490;9.200;2023-05-19T02:30:45;108.00;;;2.63;;
651;SDS011;310;48.490;9.200;2023-05-19T02:33:11;109.50;;;3.47;;
651;SDS011;310;48.490;9.200;2023-05-19T02:35:37;108.60;;;2.50;;
651;SDS011;310;48.490;9.200;2023-05-19T02:38:03;109.00;;;3.00;;
651;SDS011;310;48.490;9.200;2023-05-19T02:40:29;109.17;;;3.03;;
651;SDS011;310;48.490;9.200;2023-05-19T02:42:54;108.93;;;2.80;;
651;SDS011;310;48.490;9.200;2023-05-19T02:45:20;109.57;;;2.90;;
651;SDS011;310;48.490;9.200;2023-05-19T02:47:45;110.13;;;3.33;;
651;SDS011;310;48.490;9.200;2023-05-19T02:50:11;110.27;;;3.17;;
651;SDS011;310;48.490;9.200;2023-05-19T02:52:36;110.20;;;3.23;;
651;SDS011;310;48.490;9.200;2023-05-19T02:55:02;110.00;;;2.90;;
651;SDS011;310;48.490;9.200;2023-05-19T02:57:28;110.57;;;3.17;;
651;SDS011;310;48.490;9.200;2023-05-19T02:59:55;110.07;;;2.97;;
651;SDS011;310;48.490;9.200;2023-05-19T03:02:21;110.07;;;2.93;;
651;SDS011;310;48.490;9.200;2023-05-19T03:04:46;111.07;;;3.73;;
651;SDS011;310;48.490;9.200;2023-05-19T03:07:12;108.40;;;3.07;;
651;SDS011;310;48.490;9.200;2023-05-19T03:09:38;108.27;;;2.70;;
651;SDS011;310;48.490;9.200;2023-05-19T03:12:04;108.30;;;2.93;;
651;SDS011;310;48.490;9.200;2023-05-19T03:14:31;108.30;;;2.80;;
651;SDS011;310;48.490;9.200;2023-05-19T03:16:58;108.37;;;2.80;;
651;SDS011;310;48.490;9.200;2023-05-19T03:19:24;110.10;;;3.23;;
651;SDS011;310;48.490;9.200;2023-05-19T03:21:49;109.10;;;3.37;;
651;SDS011;310;48.490;9.200;2023-05-19T03:24:15;109.07;;;3.00;;
651;SDS011;310;48.490;9.200;2023-05-19T03:26:42;106.00;;;3.17;;
651;SDS011;310;48.490;9.200;2023-05-19T03:29:07;111.83;;;3.07;;
651;SDS011;310;48.490;9.200;2023-05-19T03:31:33;111.67;;;2.90;;
651;SDS011;310;48.490;9.200;2023-05-19T03:33:59;111.80;;;3.07;;
651;SDS011;310;48.490;9.200;2023-05-19T03:36:25;111.50;;;2.83;;
651;SDS011;310;48.490;9.200;2023-05-19T03:38:56;112.07;;;3.30;;
651;SDS011;310;48.490;9.200;2023-05-19T03:41:24;111.70;;;3.00;;
651;SDS011;310;48.490;9.200;2023-05-19T03:43:50;112.00;;;3.10;;
651;SDS011;310;48.490;9.200;2023-05-19T03:46:15;111.97;;;3.23;;
651;SDS011;310;48.490;9.200;2023-05-19T03:48:41;113.00;;;3.30;;
651;SDS011;310;48.490;9.200;2023-05-19T03:51:06;112.10;;;3.17;;
651;SDS011;310;48.490;9.200;2023-05-19T03:53:32;111.67;;;2.87;;
651;SDS011;310;48.490;9.200;2023-05-19T03:55:59;112.10;;;3.30;;
651;SDS011;310;48.490;9.200;2023-05-19T03:58:25;111.90;;;3.07;;
651;SDS011;310;48.490;9.200;2023-05-19T04:00:50;112.40;;;3.30;;
651;SDS011;310;48.490;9.200;2023-05-19T04:03:16;112.80;;;3.57;;
651;SDS011;310;48.490;9.200;2023-05-19T04:05:42;112.73;;;3.60;;
651;SDS011;310;48.490;9.200;2023-05-19T04:08:08;112.03;;;3.00;;
651;SDS011;310;48.490;9.200;2023-05-19T04:10:33;112.50;;;3.20;;
651;SDS011;310;48.490;9.200;2023-05-19T04:12:59;113.17;;;3.47;;
651;SDS011;310;48.490;9.200;2023-05-19T04:15:25;112.73;;;3.47;;
651;SDS011;310;48.490;9.200;2023-05-19T04:17:50;112.10;;;3.07;;
651;SDS011;310;48.490;9.200;2023-05-19T04:20:16;112.60;;;3.50;;
651;SDS011;310;48.490;9.200;2023-05-19T04:22:42;111.77;;;2.90;;
651;SDS011;310;48.490;9.200;2023-05-19T04:25:07;111.93;;;2.90;;
651;SDS011;310;48.490;9.200;2023-05-19T04:27:33;111.40;;;2.80;;
651;SDS011;310;48.490;9.200;2023-05-19T04:30:03;111.57;;;2.97;;
651;SDS011;310;48.490;9.200;2023-05-19T04:32:29;111.67;;;3.03;;
651;SDS011;310;48.490;9.200;2023-05-19T04:34:55;111.47;;;2.97;;
651;SDS011;310;48.490;9.200;2023-05-19T04:37:24;113.50;;;4.00;;
651;SDS011;310;48.490;9.200;2023-05-19T04:39:50;105.57;;;3.20;;
651;SDS011;310;48.490;9.200;2023-05-19T04:42:16;107.00;;;3.20;;
651;SDS011;310;48.490;9.200;2023-05-19T04:44:43;106.87;;;3.00;;
651;SDS011;310;48.490;9.200;2023-05-19T04:47:09;106.37;;;2.90;;
651;SDS011;310;48.490;9.200;2023-05-19T04:49:35;106.80;;;3.17;;
651;SDS011;310;48.490;9.200;2023-05-19T04:52:07;106.90;;;3.07;;
651;SDS011;310;48.490;9.200;2023-05-19T04:54:37;108.57;;;3.30;;
651;SDS011;310;48.490;9.200;2023-05-19T04:57:04;108.20;;;3.20;;
651;SDS011;310;48.490;9.200;2023-05-19T04:59:30;108.00;;;3.10;;
651;SDS011;310;48.490;9.200;2023-05-19T05:01:56;107.70;;;2.80;;
651;SDS011;310;48.490;9.200;2023-05-19T05:04:22;107.93;;;3.07;;
651;SDS011;310;48.490;9.200;2023-05-19T05:06:48;108.03;;;2.87;;
651;SDS011;310;48.490;9.200;2023-05-19T05:09:14;107.93;;;3.00;;
651;SDS011;310;48.490;9.200;2023-05-19T05:11:41;107.30;;;2.60;;
651;SDS011;310;48.490;9.200;2023-05-19T05:14:07;108.07;;;3.03;;
651;SDS011;310;48.490;9.200;2023-05-19T05:16:32;108.50;;;3.33;;
651;SDS011;310;48.490;9.200;2023-05-19T05:18:59;107.80;;;3.30;;
651;SDS011;310;48.490;9.200;2023-05-19T05:21:26;106.60;;;3.20;;
651;SDS011;310;48.490;9.200;2023-05-19T05:23:52;106.63;;;2.83;;
651;SDS011;310;48.490;9.200;2023-05-19T05:26:18;107.07;;;3.33;;
651;SDS011;310;48.490;9.200;2023-05-19T05:28:47;106.77;;;2.73;;
651;SDS011;310;48.490;9.200;2023-05-19T05:31:15;106.60;;;2.70;;
651;SDS011;310;48.490;9.200;2023-05-19T05:33:41;106.57;;;2.63;;
651;SDS011;310;48.490;9.200;2023-05-19T05:36:07;107.97;;;3.13;;
651;SDS011;310;48.490;9.200;2023-05-19T05:38:33;107.53;;;3.17;;
651;SDS011;310;48.490;9.200;2023-05-19T05:40:59;106.97;;;2.80;;
651;SDS011;310;48.490;9.200;2023-05-19T05:43:26;106.90;;;2.80;;
651;SDS011;310;48.490;9.200;2023-05-19T05:45:52;108.10;;;3.23;;
651;SDS011;310;48.490;9.200;2023-05-19T05:48:18;110.77;;;3.60;;
651;SDS011;310;48.490;9.200;2023-05-19T05:50:44;107.40;;;2.93;;
651;SDS011;310;48.490;9.200;2023-05-19T05:53:11;106.97;;;2.90;;
651;SDS011;310;48.490;9.200;2023-05-19T05:55:42;107.50;;;3.10;;
651;SDS011;310;48.490;9.200;2023-05-19T05:58:08;108.10;;;3.37;;
651;SDS011;310;48.490;9.200;2023-05-19T06:00:35;107.60;;;3.03;;
651;SDS011;310;48.490;9.200;2023-05-19T06:03:01;108.00;;;3.23;;
651;SDS011;310;48.490;9.200;2023-05-19T06:05:28;108.07;;;3.23;;
651;SDS011;310;48.490;9.200;2023-05-19T06:07:54;107.37;;;2.87;;
651;SDS011;310;48.490;9.200;2023-05-19T06:10:20;106.77;;;2.67;;
651;SDS011;310;48.490;9.200;2023-05-19T06:12:46;107.47;;;3.00;;
651;SDS011;310;48.490;9.200;2023-05-19T06:15:12;107.67;;;3.00;;
651;SDS011;310;48.490;9.200;2023-05-19T06:17:37;107.67;;;2.80;;
651;SDS011;310;48.490;9.200;2023-05-19T06:20:03;107.60;;;3.00;;
651;SDS011;310;48.490;9.200;2023-05-19T06:22:30;106.97;;;2.73;;
651;SDS011;310;48.490;9.200;2023-05-19T06:24:55;107.37;;;2.87;;
651;SDS011;310;48.490;9.200;2023-05-19T06:27:21;107.00;;;2.80;;
651;SDS011;310;48.490;9.200;2023-05-19T06:29:47;111.70;;;2.93;;
651;SDS011;310;48.490;9.200;2023-05-19T06:32:12;112.27;;;3.50;;
651;SDS011;310;48.490;9.200;2023-05-19T06:34:39;113.10;;;3.27;;
651;SDS011;310;48.490;9.200;2023-05-19T06:37:05;111.80;;;3.03;;
651;SDS011;310;48.490;9.200;2023-05-19T06:39:31;111.87;;;3.00;;
651;SDS011;310;48.490;9.200;2023-05-19T06:41:56;111.33;;;3.10;;
651;SDS011;310;48.490;9.200;2023-05-19T06:44:22;111.87;;;3.67;;
651;SDS011;310;48.490;9.200;2023-05-19T06:46:48;111.37;;;3.27;;
651;SDS011;310;48.490;9.200;2023-05-19T06:49:13;111.37;;;3.33;;
651;SDS011;310;48.490;9.200;2023-05-19T06:51:39;111.33;;;3.40;;
651;SDS011;310;48.490;9.200;2023-05-19T06:54:05;111.33;;;3.50;;
651;SDS011;310;48.490;9.200;2023-05-19T06:56:30;111.20;;;3.23;;
651;SDS011;310;48.490;9.200;2023-05-19T06:58:56;111.50;;;3.63;;
651;SDS011;310;48.490;9.200;2023-05-19T07:01:22;115.70;;;3.57;;
651;SDS011;310;48.490;9.200;2023-05-19T07:03:47;110.93;;;3.10;;
651;SDS011;310;48.490;9.200;2023-05-19T07:06:13;110.90;;;3.13;;
651;SDS011;310;48.490;9.200;2023-05-19T07:08:38;110.50;;;2.90;;
651;SDS011;310;48.490;9.200;2023-05-19T07:11:04;111.90;;;4.20;;
651;SDS011;310;48.490;9.200;2023-05-19T07:13:30;110.67;;;3.40;;
651;SDS011;310;48.490;9.200;2023-05-19T07:15:56;109.40;;;2.97;;
651;SDS011;310;48.490;9.200;2023-05-19T07:18:22;109.60;;;3.10;;
651;SDS011;310;48.490;9.200;2023-05-19T07:20:48;109.90;;;3.50;;
651;SDS011;310;48.490;9.200;2023-05-19T07:23:15;109.43;;;3.43;;
651;SDS011;310;48.490;9.200;2023-05-19T07:25:41;108.97;;;2.80;;
651;SDS011;310;48.490;9.200;2023-05-19T07:28:06;108.80;;;2.70;;
651;SDS011;310;48.490;9.200;2023-05-19T07:30:32;109.27;;;3.07;;
651;SDS011;310;48.490;9.200;2023-05-19T07:32:57;108.90;;;3.10;;
651;SDS011;310;48.490;9.200;2023-05-19T07:35:23;110.20;;;3.63;;
651;SDS011;310;48.490;9.200;2023-05-19T07:37:50;108.97;;;3.17;;
651;SDS011;310;48.490;9.200;2023-05-19T07:40:16;108.87;;;3.27;;
651;SDS011;310;48.490;9.200;2023-05-19T07:42:42;108.27;;;3.07;;
651;SDS011;310;48.490;9.200;2023-05-19T07:45:08;108.37;;;3.00;;
651;SDS011;310;48.490;9.200;2023-05-19T07:47:34;109.20;;;3.40;;
651;SDS011;310;48.490;9.200;2023-05-19T07:50:00;108.90;;;3.23;;
651;SDS011;310;48.490;9.200;2023-05-19T07:52:26;109.10;;;3.27;;
651;SDS011;310;48.490;9.200;2023-05-19T07:54:52;108.27;;;3.17;;
651;SDS011;310;48.490;9.200;2023-05-19T07:57:17;112.57;;;3.67;;
651;SDS011;310;48.490;9.200;2023-05-19T07:59:43;112.10;;;2.97;;
651;SDS011;310;48.490;9.200;2023-05-19T08:02:09;112.13;;;3.23;;
651;SDS011;310;48.490;9.200;2023-05-19T08:04:35;112.53;;;3.50;;
651;SDS011;310;48.490;9.200;2023-05-19T08:07:00;112.27;;;3.53;;
651;SDS011;310;48.490;9.200;2023-05-19T08:09:26;112.27;;;3.50;;
651;SDS011;310;48.490;9.200;2023-05-19T08:11:52;110.90;;;3.07;;
651;SDS011;310;48.490;9.200;2023-05-19T08:14:18;110.40;;;2.90;;
651;SDS011;310;48.490;9.200;2023-05-19T08:16:46;111.10;;;3.50;;
651;SDS011;310;48.490;9.200;2023-05-19T08:19:11;110.80;;;3.00;;
651;SDS011;310;48.490;9.200;2023-05-19T08:21:37;110.90;;;3.40;;
651;SDS011;310;48.490;9.200;2023-05-19T08:24:03;111.07;;;3.40;;
651;SDS011;310;48.490;9.200;2023-05-19T08:26:28;112.27;;;3.47;;
651;SDS011;310;48.490;9.200;2023-05-19T08:28:54;113.97;;;4.50;;
651;SDS011;310;48.490;9.200;2023-05-19T08:31:20;112.60;;;3.83;;
651;SDS011;310;48.490;9.200;2023-05-19T08:33:46;109.97;;;2.83;;
651;SDS011;310;48.490;9.200;2023-05-19T08:36:12;109.97;;;3.00;;
651;SDS011;310;48.490;9.200;2023-05-19T08:38:37;110.40;;;3.30;;
651;SDS011;310;48.490;9.200;2023-05-19T08:41:03;110.87;;;3.70;;
651;SDS011;310;48.490;9.200;2023-05-19T08:43:29;110.93;;;3.50;;
651;SDS011;310;48.490;9.200;2023-05-19T08:45:55;110.17;;;3.47;;
651;SDS011;310;48.490;9.200;2023-05-19T08:48:24;110.27;;;3.57;;
651;SDS011;310;48.490;9.200;2023-05-19T08:53:25;110.00;;;3.30;;
651;SDS011;310;48.490;9.200;2023-05-19T08:56:07;111.00;;;3.57;;
651;SDS011;310;48.490;9.200;2023-05-19T08:58:45;110.60;;;3.80;;
651;SDS011;310;48.490;9.200;2023-05-19T09:01:13;114.93;;;3.87;;
651;SDS011;310;48.490;9.200;2023-05-19T09:03:42;114.03;;;3.30;;
651;SDS011;310;48.490;9.200;2023-05-19T09:06:09;114.97;;;4.00;;
651;SDS011;310;48.490;9.200;2023-05-19T09:08:38;114.63;;;3.53;;
651;SDS011;310;48.490;9.200;2023-05-19T09:11:05;114.57;;;3.43;;
651;SDS011;310;48.490;9.200;2023-05-19T09:13:31;113.70;;;3.30;;
651;SDS011;310;48.490;9.200;2023-05-19T09:15:56;114.37;;;3.60;;
651;SDS011;310;48.490;9.200;2023-05-19T09:18:24;114.20;;;3.33;;
651;SDS011;310;48.490;9.200;2023-05-19T09:20:50;114.10;;;3.27;;
651;SDS011;310;48.490;9.200;2023-05-19T09:23:25;113.97;;;3.10;;
651;SDS011;310;48.490;9.200;2023-05-19T09:25:52;102.37;;;3.20;;
651;SDS011;310;48.490;9.200;2023-05-19T09:28:25;98.93;;;2.80;;
651;SDS011;310;48.490;9.200;2023-05-19T09:31:06;98.20;;;2.73;;
651;SDS011;310;48.490;9.200;2023-05-19T09:33:34;97.60;;;2.87;;
651;SDS011;310;48.490;9.200;2023-05-19T09:36:00;98.20;;;2.80;;
651;SDS011;310;48.490;9.200;2023-05-19T09:38:27;98.30;;;3.13;;
651;SDS011;310;48.490;9.200;2023-05-19T09:40:57;96.77;;;2.30;;
651;SDS011;310;48.490;9.200;2023-05-19T09:43:30;96.87;;;2.27;;
651;SDS011;310;48.490;9.200;2023-05-19T09:46:07;97.07;;;2.60;;
651;SDS011;310;48.490;9.200;2023-05-19T09:48:35;97.67;;;2.70;;
651;SDS011;310;48.490;9.200;2023-05-19T09:51:02;98.70;;;3.30;;
651;SDS011;310;48.490;9.200;2023-05-19T09:53:29;98.97;;;3.10;;
651;SDS011;310;48.490;9.200;2023-05-19T09:55:55;101.40;;;2.90;;
651;SDS011;310;48.490;9.200;2023-05-19T09:58:22;98.47;;;2.73;;
651;SDS011;310;48.490;9.200;2023-05-19T10:00:48;98.80;;;3.10;;
651;SDS011;310;48.490;9.200;2023-05-19T10:03:15;97.67;;;2.90;;
651;SDS011;310;48.490;9.200;2023-05-19T10:05:41;97.83;;;2.90;;
651;SDS011;310;48.490;9.200;2023-05-19T10:08:07;97.30;;;2.73;;
651;SDS011;310;48.490;9.200;2023-05-19T10:10:36;97.47;;;2.67;;
651;SDS011;310;48.490;9.200;2023-05-19T10:13:02;97.37;;;2.63;;
651;SDS011;310;48.490;9.200;2023-05-19T10:15:28;97.57;;;2.77;;
651;SDS011;310;48.490;9.200;2023-05-19T10:17:54;117.43;;;3.90;;
651;SDS011;310;48.490;9.200;2023-05-19T10:20:21;114.30;;;3.60;;
651;SDS011;310;48.490;9.200;2023-05-19T10:22:47;114.63;;;4.00;;
651;SDS011;310;48.490;9.200;2023-05-19T10:25:13;114.43;;;3.63;;
651;SDS011;310;48.490;9.200;2023-05-19T10:27:41;113.87;;;3.80;;
651;SDS011;310;48.490;9.200;2023-05-19T10:30:38;113.77;;;3.63;;
651;SDS011;310;48.490;9.200;2023-05-19T10:33:08;113.83;;;3.33;;
651;SDS011;310;48.490;9.200;2023-05-19T10:46:21;112.90;;;3.70;;
651;SDS011;310;48.490;9.200;2023-05-19T10:48:48;114.10;;;3.60;;
651;SDS011;310;48.490;9.200;2023-05-19T10:51:15;113.37;;;4.10;;
651;SDS011;310;48.490;9.200;2023-05-19T10:53:41;112.37;;;3.53;;
651;SDS011;310;48.490;9.200;2023-05-19T10:56:10;112.00;;;3.20;;
651;SDS011;310;48.490;9.200;2023-05-19T10:58:53;111.90;;;3.27;;
651;SDS011;310;48.490;9.200;2023-05-19T11:01:18;112.57;;;3.70;;
651;SDS011;310;48.490;9.200;2023-05-19T11:03:52;112.57;;;3.50;;
651;SDS011;310;48.490;9.200;2023-05-19T11:06:27;116.00;;;4.10;;
651;SDS011;310;48.490;9.200;2023-05-19T11:08:57;112.67;;;3.37;;
651;SDS011;310;48.490;9.200;2023-05-19T11:11:23;112.50;;;3.20;;
651;SDS011;310;48.490;9.200;2023-05-19T11:13:52;112.40;;;3.47;;
651;SDS011;310;48.490;9.200;2023-05-19T11:16:28;111.73;;;3.30;;
651;SDS011;310;48.490;9.200;2023-05-19T11:18:57;111.60;;;2.93;;
651;SDS011;310;48.490;9.200;2023-05-19T11:21:23;111.57;;;3.10;;
651;SDS011;310;48.490;9.200;2023-05-19T11:24:06;112.20;;;3.30;;
651;SDS011;310;48.490;9.200;2023-05-19T11:26:39;112.57;;;3.53;;
651;SDS011;310;48.490;9.200;2023-05-19T11:29:08;112.87;;;3.13;;
651;SDS011;310;48.490;9.200;2023-05-19T11:31:34;109.67;;;3.77;;
651;SDS011;310;48.490;9.200;2023-05-19T11:34:00;113.30;;;3.50;;
651;SDS011;310;48.490;9.200;2023-05-19T11:36:26;112.97;;;3.37;;
651;SDS011;310;48.490;9.200;2023-05-19T11:38:53;113.27;;;3.50;;
651;SDS011;310;48.490;9.200;2023-05-19T11:41:19;113.37;;;3.43;;
651;SDS011;310;48.490;9.200;2023-05-19T11:43:46;112.87;;;3.40;;
651;SDS011;310;48.490;9.200;2023-05-19T11:46:12;112.60;;;3.33;;
651;SDS011;310;48.490;9.200;2023-05-19T11:48:37;112.10;;;3.43;;
651;SDS011;310;48.490;9.200;2023-05-19T11:51:05;112.60;;;3.50;;
651;SDS011;310;48.490;9.200;2023-05-19T11:53:30;111.90;;;3.40;;
651;SDS011;310;48.490;9.200;2023-05-19T11:56:01;112.10;;;3.50;;
651;SDS011;310;48.490;9.200;2023-05-19T11:58:28;111.80;;;3.60;;
651;SDS011;310;48.490;9.200;2023-05-19T12:00:54;111.50;;;3.43;;
651;SDS011;310;48.490;9.200;2023-05-19T12:03:20;111.10;;;2.87;;
651;SDS011;310;48.490;9.200;2023-05-19T12:05:50;111.57;;;3.37;;
651;SDS011;310;48.490;9.200;2023-05-19T12:08:17;111.50;;;3.13;;
651;SDS011;310;48.490;9.200;2023-05-19T12:10:42;111.60;;;3.20;;
651;SDS011;310;48.490;9.200;2023-05-19T12:13:11;112.07;;;3.70;;
651;SDS011;310;48.490;9.200;2023-05-19T12:15:37;111.37;;;3.33;;
651;SDS011;310;48.490;9.200;2023-05-19T12:18:02;111.57;;;3.37;;
651;SDS011;310;48.490;9.200;2023-05-19T12:20:28;110.50;;;3.20;;
651;SDS011;310;48.490;9.200;2023-05-19T12:22:56;110.60;;;2.90;;
651;SDS011;310;48.490;9.200;2023-05-19T12:25:23;110.57;;;2.80;;
651;SDS011;310;48.490;9.200;2023-05-19T12:27:49;110.27;;;2.90;;
651;SDS011;310;48.490;9.200;2023-05-19T12:30:16;110.67;;;3.33;;
651;SDS011;310;48.490;9.200;2023-05-19T12:32:43;111.10;;;3.73;;
651;SDS011;310;48.490;9.200;2023-05-19T12:35:10;110.30;;;3.13;;
651;SDS011;310;48.490;9.200;2023-05-19T12:37:36;110.23;;;3.00;;
651;SDS011;310;48.490;9.200;2023-05-19T12:40:05;111.10;;;3.80;;
651;SDS011;310;48.490;9.200;2023-05-19T12:42:31;110.67;;;3.47;;
651;SDS011;310;48.490;9.200;2023-05-19T12:44:59;110.60;;;3.47;;
651;SDS011;310;48.490;9.200;2023-05-19T12:47:33;110.50;;;3.00;;
651;SDS011;310;48.490;9.200;2023-05-19T12:52:26;110.07;;;3.10;;
651;SDS011;310;48.490;9.200;2023-05-19T12:54:56;110.50;;;3.30;;
651;SDS011;310;48.490;9.200;2023-05-19T12:57:28;110.17;;;3.07;;
651;SDS011;310;48.490;9.200;2023-05-19T13:00:02;110.80;;;3.47;;
651;SDS011;310;48.490;9.200;2023-05-19T13:02:35;110.67;;;3.33;;
651;SDS011;310;48.490;9.200;2023-05-19T13:05:18;109.97;;;3.10;;
651;SDS011;310;48.490;9.200;2023-05-19T13:07:57;110.10;;;3.10;;
651;SDS011;310;48.490;9.200;2023-05-19T13:10:24;109.80;;;2.90;;
651;SDS011;310;48.490;9.200;2023-05-19T13:12:54;110.23;;;3.20;;
651;SDS011;310;48.490;9.200;2023-05-19T13:15:23;110.17;;;3.40;;
651;SDS011;310;48.490;9.200;2023-05-19T13:17:50;110.03;;;3.13;;
651;SDS011;310;48.490;9.200;2023-05-19T13:20:16;110.10;;;3.60;;
651;SDS011;310;48.490;9.200;2023-05-19T13:22:43;109.97;;;3.50;;
651;SDS011;310;48.490;9.200;2023-05-19T13:25:09;109.50;;;3.10;;
651;SDS011;310;48.490;9.200;2023-05-19T13:27:35;109.50;;;3.00;;
651;SDS011;310;48.490;9.200;2023-05-19T13:30:01;109.80;;;3.07;;
651;SDS011;310;48.490;9.200;2023-05-19T13:32:27;109.67;;;3.07;;
651;SDS011;310;48.490;9.200;2023-05-19T13:34:53;112.97;;;3.30;;
651;SDS011;310;48.490;9.200;2023-05-19T13:37:19;108.90;;;2.70;;
651;SDS011;310;48.490;9.200;2023-05-19T13:39:44;109.33;;;3.03;;
651;SDS011;310;48.490;9.200;2023-05-19T13:42:10;109.40;;;2.90;;
651;SDS011;310;48.490;9.200;2023-05-19T13:44:36;109.90;;;2.90;;
651;SDS011;310;48.490;9.200;2023-05-19T13:47:01;109.67;;;2.87;;
651;SDS011;310;48.490;9.200;2023-05-19T13:49:27;109.60;;;3.27;;
651;SDS011;310;48.490;9.200;2023-05-19T13:51:56;110.87;;;3.50;;
651;SDS011;310;48.490;9.200;2023-05-19T13:54:22;110.17;;;3.40;;
651;SDS011;310;48.490;9.200;2023-05-19T13:56:48;110.00;;;3.53;;
651;SDS011;310;48.490;9.200;2023-05-19T13:59:14;109.10;;;3.00;;
651;SDS011;310;48.490;9.200;2023-05-19T14:01:41;109.30;;;3.33;;
651;SDS011;310;48.490;9.200;2023-05-19T14:04:07;109.30;;;3.00;;
651;SDS011;310;48.490;9.200;2023-05-19T14:06:33;109.57;;;3.17;;
651;SDS011;310;48.490;9.200;2023-05-19T14:08:59;110.10;;;3.50;;
651;SDS011;310;48.490;9.200;2023-05-19T14:11:24;109.23;;;3.03;;
651;SDS011;310;48.490;9.200;2023-05-19T14:13:50;109.10;;;3.10;;
651;SDS011;310;48.490;9.200;2023-05-19T14:16:16;109.17;;;3.13;;
651;SDS011;310;48.490;9.200;2023-05-19T14:18:41;109.30;;;3.20;;
651;SDS011;310;48.490;9.200;2023-05-19T14:21:07;109.30;;;3.00;;
651;SDS011;310;48.490;9.200;2023-05-19T14:23:33;109.13;;;2.93;;
651;SDS011;310;48.490;9.200;2023-05-19T14:25:59;108.70;;;2.67;;
651;SDS011;310;48.490;9.200;2023-05-19T14:28:25;109.70;;;3.40;;
651;SDS011;310;48.490;9.200;2023-05-19T14:30:50;108.87;;;3.00;;
651;SDS011;310;48.490;9.200;2023-05-19T14:33:16;109.03;;;3.40;;
651;SDS011;310;48.490;9.200;2023-05-19T14:35:43;109.43;;;3.57;;
651;SDS011;310;48.490;9.200;2023-05-19T14:38:09;109.53;;;3.50;;
651;SDS011;310;48.490;9.200;2023-05-19T14:40:35;109.00;;;3.10;;
651;SDS011;310;48.490;9.200;2023-05-19T14:43:02;108.60;;;2.87;;
651;SDS011;310;48.490;9.200;2023-05-19T14:45:27;107.93;;;3.20;;
651;SDS011;310;48.490;9.200;2023-05-19T14:47:53;108.10;;;3.23;;
651;SDS011;310;48.490;9.200;2023-05-19T14:50:19;107.93;;;2.93;;
651;SDS011;310;48.490;9.200;2023-05-19T14:52:45;108.37;;;3.30;;
651;SDS011;310;48.490;9.200;2023-05-19T14:55:10;107.67;;;2.73;;
651;SDS011;310;48.490;9.200;2023-05-19T14:57:36;108.80;;;3.30;;
651;SDS011;310;48.490;9.200;2023-05-19T15:00:01;109.20;;;3.30;;
651;SDS011;310;48.490;9.200;2023-05-19T15:02:27;108.70;;;3.30;;
651;SDS011;310;48.490;9.200;2023-05-19T15:04:53;109.10;;;3.23;;
651;SDS011;310;48.490;9.200;2023-05-19T15:07:18;108.80;;;3.33;;
651;SDS011;310;48.490;9.200;2023-05-19T15:09:44;109.17;;;3.33;;
651;SDS011;310;48.490;9.200;2023-05-19T15:12:10;108.37;;;3.03;;
651;SDS011;310;48.490;9.200;2023-05-19T15:14:35;109.30;;;3.27;;
651;SDS011;310;48.490;9.200;2023-05-19T15:17:01;109.37;;;3.10;;
651;SDS011;310;48.490;9.200;2023-05-19T15:19:26;111.27;;;4.00;;
651;SDS011;310;48.490;9.200;2023-05-19T15:21:52;108.27;;;3.13;;
651;SDS011;310;48.490;9.200;2023-05-19T15:24:18;108.60;;;3.20;;
651;SDS011;310;48.490;9.200;2023-05-19T15:26:44;109.87;;;3.57;;
651;SDS011;310;48.490;9.200;2023-05-19T15:29:09;108.67;;;2.90;;
651;SDS011;310;48.490;9.200;2023-05-19T15:31:35;108.43;;;3.23;;
651;SDS011;310;48.490;9.200;2023-05-19T15:34:01;108.50;;;3.23;;
651;SDS011;310;48.490;9.200;2023-05-19T15:36:26;112.97;;;3.23;;
651;SDS011;310;48.490;9.200;2023-05-19T15:38:52;108.50;;;3.10;;
651;SDS011;310;48.490;9.200;2023-05-19T15:41:17;108.80;;;3.23;;
651;SDS011;310;48.490;9.200;2023-05-19T15:43:43;110.13;;;3.23;;
651;SDS011;310;48.490;9.200;2023-05-19T15:46:10;109.23;;;2.70;;